Time;durP1;ratioP1;P1;durP2;ratioP2;P2;SDS_P1;SDS_P2;PMS_P1;PMS_P2;Temp;Humidity;BMP_temperature;BMP_pressure;BME280_temperature;BME280_humidity;BME280_pressure;Samples;Min_cycle;Max_cycle;Signal;HPM_P1;HPM_P2
2022/01/26 00:07:43;;;;;;;69.83;22.67;;;;;4.10;102665.00;;;;5040006;28;20224;-71
2022/01/26 00:10:30;;;;;;;71.13;24.33;;;;;4.00;102672.00;;;;5047750;28;20246;-70
2022/01/26 00:13:16;;;;;;;74.23;24.50;;;;;4.00;102660.00;;;;5052070;28;20278;-72
2022/01/26 00:16:08;;;;;;;74.57;23.83;;;;;3.90;102660.00;;;;5042572;28;20228;-70
2022/01/26 00:18:59;;;;;;;65.53;23.63;;;;;4.00;102661.00;;;;5047597;28;20246;-71
2022/01/26 00:21:48;;;;;;;74.23;23.33;;;;;4.00;102644.00;;;;5048056;28;20254;-70
2022/01/26 00:24:53;;;;;;;72.47;22.57;;;;;3.90;102649.00;;;;5050479;28;20236;-71
2022/01/26 00:27:50;;;;;;;76.20;22.07;;;;;4.00;102658.00;;;;5051678;28;20817;-70
2022/01/26 00:40:07;;;;;;;79.03;22.63;;;;;3.90;102651.00;;;;5053866;28;20236;-70
2022/01/26 00:42:57;;;;;;;79.20;23.67;;;;;3.80;102639.00;;;;5048509;28;20303;-70
2022/01/26 00:45:44;;;;;;;78.00;23.20;;;;;3.80;102627.00;;;;5043390;28;20245;-71
2022/01/26 00:48:32;;;;;;;83.33;24.17;;;;;3.80;102611.00;;;;5049111;28;20232;-69
2022/01/26 00:51:22;;;;;;;73.13;23.20;;;;;3.80;102633.00;;;;5056107;28;20239;-69
2022/01/26 00:54:09;;;;;;;78.83;23.53;;;;;3.90;102632.00;;;;5051543;28;20242;-70
2022/01/26 00:56:55;;;;;;;73.17;23.63;;;;;3.80;102628.00;;;;5047027;28;20231;-71
2022/01/26 00:59:41;;;;;;;72.77;23.57;;;;;3.80;102629.00;;;;5047302;28;20286;-70
2022/01/26 01:02:30;;;;;;;80.53;24.23;;;;;3.80;102628.00;;;;5053385;28;20751;-69
2022/01/26 01:05:19;;;;;;;75.63;23.33;;;;;3.80;102626.00;;;;5050953;28;20232;-70
2022/01/26 01:08:11;;;;;;;79.87;22.80;;;;;3.80;102624.00;;;;5043637;28;20232;-70
2022/01/26 01:10:58;;;;;;;79.50;25.03;;;;;3.80;102618.00;;;;5046131;28;20240;-69
2022/01/26 01:13:45;;;;;;;78.83;23.60;;;;;3.90;102626.00;;;;5053857;28;20900;-69
2022/01/26 01:16:31;;;;;;;77.17;23.33;;;;;3.90;102629.00;;;;5050808;28;20672;-71
2022/01/26 01:19:30;;;;;;;77.63;25.07;;;;;3.80;102629.00;;;;5058445;28;20232;-71
2022/01/26 01:22:35;;;;;;;81.70;25.00;;;;;3.90;102628.00;;;;5045640;28;20221;-70
2022/01/26 01:26:02;;;;;;;68.97;21.73;;;;;3.80;102641.00;;;;5056505;28;20252;-70
2022/01/26 01:29:06;;;;;;;66.83;21.93;;;;;3.70;102640.00;;;;5048049;28;20237;-70
2022/01/26 01:31:56;;;;;;;73.73;22.87;;;;;3.90;102629.00;;;;5049424;28;20243;-68
2022/01/26 01:34:42;;;;;;;79.33;23.93;;;;;3.80;102622.00;;;;5049316;28;20225;-70
2022/01/26 01:37:28;;;;;;;82.07;24.37;;;;;3.90;102622.00;;;;5051401;28;20247;-69
2022/01/26 01:40:15;;;;;;;77.17;23.67;;;;;3.70;102616.00;;;;5048970;28;20255;-70
2022/01/26 01:43:03;;;;;;;77.00;23.53;;;;;3.80;102607.00;;;;5059894;28;20228;-72
2022/01/26 01:45:51;;;;;;;83.00;24.13;;;;;3.70;102607.00;;;;5046182;28;20224;-69
2022/01/26 01:48:37;;;;;;;73.90;23.27;;;;;3.70;102617.00;;;;5046577;28;20228;-69
2022/01/26 01:51:29;;;;;;;76.20;25.27;;;;;3.70;102622.00;;;;5037890;28;20232;-70
2022/01/26 01:54:17;;;;;;;72.40;23.07;;;;;3.70;102615.00;;;;5044611;28;20603;-69
2022/01/26 01:57:04;;;;;;;78.93;24.80;;;;;3.70;102617.00;;;;5043677;28;20327;-71
2022/01/26 01:59:52;;;;;;;82.80;24.50;;;;;3.70;102617.00;;;;5059429;28;20236;-74
2022/01/26 02:02:38;;;;;;;81.00;23.77;;;;;3.60;102619.00;;;;5053656;28;20232;-69
2022/01/26 02:05:24;;;;;;;86.60;26.27;;;;;3.50;102624.00;;;;5053558;28;20864;-69
2022/01/26 02:08:11;;;;;;;76.07;24.20;;;;;3.60;102614.00;;;;5040282;28;20224;-70
2022/01/26 02:10:58;;;;;;;69.97;22.83;;;;;3.70;102619.00;;;;5034970;28;20443;-72
2022/01/26 02:13:53;;;;;;;77.30;24.07;;;;;3.70;102617.00;;;;5043584;28;20219;-72
2022/01/26 02:16:47;;;;;;;80.10;24.60;;;;;3.60;102606.00;;;;5035904;28;20287;-70
2022/01/26 02:50:35;;;;;;;84.13;23.93;;;;;3.60;102573.00;;;;5048328;28;20235;-73
2022/01/26 02:53:42;;;;;;;87.93;24.47;;;;;3.60;102567.00;;;;5050610;28;20261;-69
2022/01/26 02:56:39;;;;;;;73.20;23.80;;;;;3.70;102566.00;;;;5046411;28;20298;-69
2022/01/26 02:59:48;;;;;;;81.90;22.93;;;;;3.70;102559.00;;;;5051857;28;20258;-67
2022/01/26 03:02:39;;;;;;;80.03;23.93;;;;;3.60;102552.00;;;;5054552;28;20235;-73
2022/01/26 03:05:31;;;;;;;85.87;23.90;;;;;3.60;102546.00;;;;5056530;28;20328;-71
2022/01/26 03:08:26;;;;;;;78.90;22.03;;;;;3.70;102535.00;;;;5054427;28;20306;-68
2022/01/26 03:11:15;;;;;;;78.43;23.50;;;;;3.80;102525.00;;;;5040848;28;20236;-70
2022/01/26 03:14:09;;;;;;;75.43;22.73;;;;;3.80;102531.00;;;;5045020;28;20260;-71
2022/01/26 03:17:00;;;;;;;77.03;24.07;;;;;3.60;102531.00;;;;5051559;28;20240;-69
2022/01/26 03:19:49;;;;;;;77.37;23.53;;;;;3.60;102516.00;;;;5037398;28;20629;-70
2022/01/26 03:28:57;;;;;;;82.03;22.47;;;;;3.70;102520.00;;;;5046853;28;20362;-71
2022/01/26 03:32:20;;;;;;;77.60;22.13;;;;;3.50;102516.00;;;;5038180;28;20444;-72
2022/01/26 03:35:00;;;;;;;83.97;22.17;;;;;3.60;102533.00;;;;5039093;28;20606;-70
2022/01/26 03:37:53;;;;;;;80.70;23.20;;;;;3.50;102520.00;;;;5055129;28;20233;-67
2022/01/26 03:40:41;;;;;;;79.30;22.07;;;;;3.60;102527.00;;;;5046384;28;20226;-69
2022/01/26 03:43:28;;;;;;;76.70;21.63;;;;;3.60;102531.00;;;;5046638;28;20233;-68
2022/01/26 03:46:16;;;;;;;78.20;22.17;;;;;3.50;102520.00;;;;5049747;28;20229;-70
2022/01/26 03:49:03;;;;;;;72.67;22.30;;;;;3.50;102525.00;;;;5042844;28;20840;-71
2022/01/26 03:51:50;;;;;;;80.47;23.27;;;;;3.50;102531.00;;;;5045868;28;20327;-72
2022/01/26 03:54:37;;;;;;;78.50;24.20;;;;;3.60;102537.00;;;;5047128;28;20583;-71
2022/01/26 03:57:23;;;;;;;83.23;23.73;;;;;3.50;102543.00;;;;5046200;28;20295;-73
2022/01/26 04:00:10;;;;;;;75.33;22.87;;;;;3.50;102533.00;;;;5052531;28;20283;-68
2022/01/26 04:02:58;;;;;;;72.13;22.33;;;;;3.50;102542.00;;;;5054775;28;20656;-71
2022/01/26 04:05:44;;;;;;;73.73;21.07;;;;;3.50;102547.00;;;;5060721;28;20233;-72
2022/01/26 04:08:33;;;;;;;77.10;22.37;;;;;3.50;102552.00;;;;5057472;28;20228;-69
2022/01/26 04:11:30;;;;;;;79.20;22.80;;;;;3.70;102538.00;;;;5048977;28;20244;-71
2022/01/26 04:14:21;;;;;;;82.27;22.83;;;;;3.70;102536.00;;;;5058479;28;20715;-71
2022/01/26 04:17:08;;;;;;;70.00;22.07;;;;;3.60;102551.00;;;;5046697;28;20234;-71
2022/01/26 04:19:58;;;;;;;79.83;23.50;;;;;3.60;102545.00;;;;5045563;28;20371;-72
2022/01/26 04:22:54;;;;;;;72.07;23.53;;;;;3.50;102546.00;;;;5042564;28;20229;-71
2022/01/26 04:25:43;;;;;;;76.43;22.17;;;;;3.70;102527.00;;;;5047996;28;20279;-71
2022/01/26 04:28:36;;;;;;;76.30;22.67;;;;;3.60;102525.00;;;;5047797;28;20371;-68
2022/01/26 04:31:22;;;;;;;70.27;22.77;;;;;3.50;102520.00;;;;5049783;28;20724;-72
2022/01/26 04:34:09;;;;;;;82.13;22.03;;;;;3.50;102535.00;;;;5049258;28;20259;-71
2022/01/26 04:37:02;;;;;;;77.70;22.53;;;;;3.60;102511.00;;;;5048566;28;20240;-71
2022/01/26 04:39:54;;;;;;;74.03;23.60;;;;;3.70;102523.00;;;;5040994;28;20267;-71
2022/01/26 04:42:48;;;;;;;74.10;23.17;;;;;3.70;102527.00;;;;5052794;28;20765;-73
2022/01/26 04:45:35;;;;;;;87.93;23.60;;;;;3.40;102533.00;;;;5046394;28;20744;-67
2022/01/26 04:48:23;;;;;;;79.63;22.73;;;;;3.70;102535.00;;;;5041063;28;20309;-72
2022/01/26 04:51:10;;;;;;;76.97;22.77;;;;;3.60;102550.00;;;;5034949;28;20736;-72
2022/01/26 04:53:59;;;;;;;83.10;23.67;;;;;3.60;102558.00;;;;5035916;28;20779;-71
2022/01/26 04:56:45;;;;;;;82.23;23.70;;;;;3.70;102564.00;;;;5043542;28;20640;-71
2022/01/26 04:59:32;;;;;;;82.77;25.67;;;;;3.70;102568.00;;;;5041125;28;20229;-71
2022/01/26 05:02:18;;;;;;;80.20;22.13;;;;;3.50;102574.00;;;;5039814;28;20227;-71
2022/01/26 05:05:05;;;;;;;72.60;23.10;;;;;3.60;102570.00;;;;5052857;28;20255;-72
2022/01/26 05:07:52;;;;;;;81.30;25.07;;;;;3.50;102579.00;;;;5040169;28;20898;-72
2022/01/26 05:10:42;;;;;;;79.37;23.30;;;;;3.70;102579.00;;;;5045811;28;20943;-73
2022/01/26 05:13:29;;;;;;;76.90;25.37;;;;;3.60;102575.00;;;;5049938;28;20608;-69
2022/01/26 05:16:15;;;;;;;85.70;24.27;;;;;3.60;102573.00;;;;5059373;28;20229;-70
2022/01/26 05:19:01;;;;;;;82.67;24.73;;;;;3.60;102568.00;;;;5055564;28;20246;-71
2022/01/26 05:21:48;;;;;;;81.47;25.73;;;;;3.50;102554.00;;;;5043817;28;20364;-72
2022/01/26 05:24:35;;;;;;;82.33;24.27;;;;;3.50;102551.00;;;;5054737;28;20240;-71
2022/01/26 05:27:23;;;;;;;79.97;23.53;;;;;3.40;102565.00;;;;5049314;28;20228;-71
2022/01/26 05:30:10;;;;;;;78.53;23.40;;;;;3.40;102578.00;;;;5038205;28;20761;-72
2022/01/26 05:32:56;;;;;;;84.70;26.10;;;;;3.50;102548.00;;;;5050901;28;20279;-73
2022/01/26 05:35:43;;;;;;;88.37;25.70;;;;;3.60;102553.00;;;;5054087;28;20239;-72
2022/01/26 05:38:29;;;;;;;82.13;24.73;;;;;3.70;102549.00;;;;5049272;28;20710;-71
2022/01/26 05:41:16;;;;;;;87.30;24.67;;;;;3.50;102536.00;;;;5053638;28;20232;-69
2022/01/26 05:44:04;;;;;;;82.80;25.03;;;;;3.40;102536.00;;;;5046370;28;21110;-70
2022/01/26 05:46:50;;;;;;;90.57;26.13;;;;;3.40;102530.00;;;;5053855;28;20632;-69
2022/01/26 05:49:36;;;;;;;85.53;25.47;;;;;3.40;102528.00;;;;5038634;28;20276;-70
2022/01/26 05:52:22;;;;;;;87.67;24.73;;;;;3.40;102510.00;;;;5033171;28;20236;-70
2022/01/26 05:55:10;;;;;;;85.93;26.20;;;;;3.40;102504.00;;;;5065387;28;20548;-70
2022/01/26 05:57:56;;;;;;;88.80;26.47;;;;;3.30;102499.00;;;;5040066;28;20359;-68
2022/01/26 06:00:44;;;;;;;80.47;22.83;;;;;3.50;102508.00;;;;5047311;28;20367;-70
2022/01/26 06:03:31;;;;;;;86.83;25.37;;;;;3.30;102524.00;;;;5034494;28;20232;-71
2022/01/26 06:06:17;;;;;;;84.70;23.57;;;;;3.50;102537.00;;;;5035416;28;20241;-70
2022/01/26 06:09:04;;;;;;;86.57;24.33;;;;;3.30;102530.00;;;;5028717;28;20232;-70
2022/01/26 06:11:50;;;;;;;85.40;24.80;;;;;3.20;102530.00;;;;5053841;28;20616;-68
2022/01/26 06:14:36;;;;;;;79.83;24.47;;;;;3.50;102547.00;;;;5052915;28;20239;-70
2022/01/26 06:17:24;;;;;;;92.37;25.43;;;;;3.30;102545.00;;;;5045647;28;20369;-71
2022/01/26 06:20:10;;;;;;;81.80;24.13;;;;;3.30;102544.00;;;;5049450;28;20228;-72
2022/01/26 06:22:57;;;;;;;86.37;24.27;;;;;3.40;102541.00;;;;5055161;28;20232;-70
2022/01/26 06:25:44;;;;;;;94.53;24.70;;;;;3.20;102540.00;;;;5040511;28;20227;-70
2022/01/26 06:28:30;;;;;;;80.73;22.60;;;;;3.20;102537.00;;;;5044061;28;20278;-71
2022/01/26 06:31:17;;;;;;;81.97;23.50;;;;;3.20;102537.00;;;;5054012;28;20229;-70
2022/01/26 06:34:05;;;;;;;81.00;24.37;;;;;3.30;102527.00;;;;5052127;28;20892;-71
2022/01/26 06:36:51;;;;;;;82.63;22.47;;;;;3.50;102531.00;;;;5051087;28;20250;-71
2022/01/26 06:39:38;;;;;;;83.97;25.33;;;;;3.30;102531.00;;;;5046694;28;20607;-70
2022/01/26 06:42:29;;;;;;;86.73;23.63;;;;;3.20;102521.00;;;;5049244;28;20231;-70
2022/01/26 06:45:17;;;;;;;80.97;23.03;;;;;3.20;102544.00;;;;5047687;28;20227;-70
2022/01/26 06:51:10;;;;;;;79.33;22.83;;;;;3.10;102524.00;;;;5045463;28;20225;-71
2022/01/26 06:53:56;;;;;;;76.67;23.63;;;;;3.10;102537.00;;;;5039310;28;20311;-71
2022/01/26 06:56:44;;;;;;;83.30;23.83;;;;;3.30;102545.00;;;;5047842;28;20286;-70
2022/01/26 06:59:36;;;;;;;84.40;23.07;;;;;3.20;102544.00;;;;5034099;28;20224;-69
2022/01/26 07:02:22;;;;;;;78.23;22.93;;;;;3.10;102545.00;;;;5052716;28;20231;-70
2022/01/26 07:05:10;;;;;;;85.13;24.33;;;;;3.20;102548.00;;;;5052511;28;20240;-70
2022/01/26 07:07:58;;;;;;;98.63;25.83;;;;;3.10;102526.00;;;;5039158;28;20228;-69
2022/01/26 07:10:44;;;;;;;86.30;24.13;;;;;3.10;102534.00;;;;5044949;28;20287;-74
2022/01/26 07:13:31;;;;;;;92.20;25.07;;;;;3.20;102525.00;;;;5048674;28;20275;-69
2022/01/26 07:22:25;;;;;;;97.37;24.10;;;;;3.20;102520.00;;;;5049401;28;20701;-71
2022/01/26 07:25:13;;;;;;;84.77;25.10;;;;;3.30;102510.00;;;;5041039;28;20310;-72
2022/01/26 07:28:02;;;;;;;84.87;22.13;;;;;3.20;102518.00;;;;5046642;28;20297;-71
2022/01/26 07:30:50;;;;;;;81.50;23.57;;;;;3.30;102520.00;;;;5038642;28;20778;-71
2022/01/26 07:33:38;;;;;;;94.63;26.07;;;;;3.50;102520.00;;;;5051485;28;20231;-71
2022/01/26 07:36:25;;;;;;;85.57;24.37;;;;;3.50;102521.00;;;;5049205;28;20232;-71
2022/01/26 07:39:16;;;;;;;80.30;23.73;;;;;3.40;102508.00;;;;5053096;28;20243;-71
2022/01/26 07:42:04;;;;;;;83.17;22.63;;;;;3.30;102538.00;;;;5042919;28;20231;-71
2022/01/26 07:44:50;;;;;;;72.90;22.83;;;;;3.30;102532.00;;;;5044914;28;20275;-71
2022/01/26 07:47:37;;;;;;;96.47;25.17;;;;;3.40;102523.00;;;;5050645;28;20324;-72
2022/01/26 07:50:23;;;;;;;94.37;25.67;;;;;3.40;102508.00;;;;5057099;28;20226;-71
2022/01/26 07:53:14;;;;;;;86.50;24.70;;;;;3.60;102506.00;;;;5061319;28;20229;-71
2022/01/26 07:56:00;;;;;;;87.33;25.00;;;;;3.50;102511.00;;;;5042820;28;20233;-72
2022/01/26 07:58:48;;;;;;;84.97;24.53;;;;;3.50;102507.00;;;;5058037;28;20221;-71
2022/01/26 08:01:35;;;;;;;93.67;26.47;;;;;3.40;102514.00;;;;5048642;28;20277;-70
2022/01/26 08:04:22;;;;;;;90.77;26.00;;;;;3.40;102525.00;;;;5048676;28;20234;-70
2022/01/26 08:07:09;;;;;;;94.10;27.10;;;;;3.30;102526.00;;;;5052470;28;20236;-69
2022/01/26 08:09:55;;;;;;;92.93;26.23;;;;;3.30;102529.00;;;;5046883;28;20240;-70
2022/01/26 08:12:48;;;;;;;90.40;25.27;;;;;3.40;102537.00;;;;5054722;28;20302;-70
2022/01/26 08:15:44;;;;;;;80.73;24.67;;;;;3.40;102522.00;;;;5047739;28;20239;-70
2022/01/26 08:18:31;;;;;;;95.40;25.10;;;;;3.60;102508.00;;;;5051249;28;20308;-72
2022/01/26 08:21:18;;;;;;;87.83;25.43;;;;;3.70;102523.00;;;;5059777;28;20714;-70
2022/01/26 08:24:13;;;;;;;87.93;25.50;;;;;3.50;102541.00;;;;5042708;28;20262;-71
2022/01/26 08:27:05;;;;;;;96.60;26.33;;;;;3.40;102557.00;;;;5054206;28;20324;-70
2022/01/26 08:29:55;;;;;;;96.97;28.67;;;;;3.70;102554.00;;;;5046244;28;20229;-71
2022/01/26 08:32:46;;;;;;;86.23;26.53;;;;;3.50;102572.00;;;;5039657;28;20239;-70
2022/01/26 08:35:33;;;;;;;91.73;25.73;;;;;3.50;102564.00;;;;5050489;28;20262;-70
2022/01/26 08:38:21;;;;;;;94.30;25.77;;;;;3.50;102563.00;;;;5047716;28;20229;-71
2022/01/26 08:41:09;;;;;;;88.33;26.67;;;;;3.50;102557.00;;;;5050743;28;20299;-70
2022/01/26 08:43:56;;;;;;;112.63;31.53;;;;;3.50;102564.00;;;;5043897;28;20264;-71
2022/01/26 08:46:43;;;;;;;96.53;26.17;;;;;3.50;102563.00;;;;5047242;28;20722;-71
2022/01/26 08:49:31;;;;;;;96.33;26.03;;;;;3.60;102573.00;;;;5049242;28;20318;-71
2022/01/26 08:52:17;;;;;;;83.97;24.97;;;;;3.50;102580.00;;;;5050634;28;20231;-73
2022/01/26 08:55:04;;;;;;;98.63;26.73;;;;;3.50;102571.00;;;;5050124;28;20239;-71
2022/01/26 08:57:50;;;;;;;100.10;27.13;;;;;3.50;102584.00;;;;5040371;28;20314;-70
2022/01/26 09:00:39;;;;;;;105.67;27.77;;;;;3.40;102591.00;;;;5054967;28;20235;-71
2022/01/26 09:03:39;;;;;;;93.87;26.87;;;;;3.50;102584.00;;;;5054541;28;20228;-70
2022/01/26 09:06:27;;;;;;;103.13;28.90;;;;;3.60;102572.00;;;;5043918;28;20678;-71
2022/01/26 09:09:13;;;;;;;100.00;27.80;;;;;3.50;102570.00;;;;5044162;28;20243;-70
2022/01/26 09:12:06;;;;;;;100.70;28.73;;;;;3.60;102568.00;;;;5046595;28;20237;-69
2022/01/26 09:14:53;;;;;;;102.97;27.70;;;;;3.50;102578.00;;;;5046804;28;20338;-71
2022/01/26 09:17:42;;;;;;;102.43;27.77;;;;;3.70;102581.00;;;;5051367;28;20704;-71
2022/01/26 09:20:28;;;;;;;109.07;28.53;;;;;3.70;102575.00;;;;5048160;28;20309;-70
2022/01/26 09:23:15;;;;;;;103.50;27.90;;;;;3.60;102564.00;;;;5040051;28;20224;-69
2022/01/26 09:26:02;;;;;;;95.23;27.03;;;;;3.60;102564.00;;;;5038918;28;20234;-69
2022/01/26 09:28:48;;;;;;;105.43;29.00;;;;;3.70;102567.00;;;;5032919;28;20224;-70
2022/01/26 09:31:34;;;;;;;108.20;28.33;;;;;3.70;102565.00;;;;5041318;28;20225;-71
2022/01/26 09:34:22;;;;;;;101.63;27.43;;;;;3.80;102549.00;;;;5044281;28;20304;-69
2022/01/26 09:37:11;;;;;;;106.87;29.67;;;;;4.00;102537.00;;;;5039797;28;20225;-70
2022/01/26 09:39:59;;;;;;;104.30;28.03;;;;;3.90;102547.00;;;;5042101;28;20650;-73
2022/01/26 09:42:47;;;;;;;105.77;28.53;;;;;3.90;102550.00;;;;5041213;28;20224;-69
2022/01/26 09:45:35;;;;;;;105.57;27.83;;;;;3.80;102543.00;;;;5051382;28;20243;-72
2022/01/26 09:48:21;;;;;;;96.37;27.37;;;;;3.90;102536.00;;;;5050480;28;20228;-73
2022/01/26 09:51:07;;;;;;;106.23;27.97;;;;;3.90;102530.00;;;;5052230;28;20857;-74
2022/01/26 09:54:01;;;;;;;96.53;27.53;;;;;3.90;102530.00;;;;5046494;28;20232;-73
2022/01/26 09:56:52;;;;;;;104.30;28.43;;;;;4.00;102540.00;;;;5048733;28;20251;-68
2022/01/26 09:59:38;;;;;;;100.37;26.50;;;;;3.80;102540.00;;;;5046538;28;20228;-69
2022/01/26 10:02:26;;;;;;;109.60;28.67;;;;;3.90;102551.00;;;;5051414;28;20305;-71
2022/01/26 10:05:17;;;;;;;112.17;28.50;;;;;4.00;102538.00;;;;5049832;28;20427;-74
2022/01/26 10:08:11;;;;;;;102.47;26.63;;;;;3.90;102542.00;;;;5044671;28;20232;-73
2022/01/26 10:17:28;;;;;;;99.00;27.97;;;;;3.80;102551.00;;;;5045184;28;20322;-71
2022/01/26 10:20:17;;;;;;;100.97;27.47;;;;;3.90;102545.00;;;;5046874;28;20298;-69
2022/01/26 10:23:07;;;;;;;116.63;29.00;;;;;3.90;102575.00;;;;5050405;28;20236;-71
2022/01/26 10:26:02;;;;;;;107.73;27.67;;;;;3.70;102588.00;;;;5045548;28;20328;-71
2022/01/26 10:28:51;;;;;;;116.83;28.87;;;;;3.90;102576.00;;;;5042888;28;20736;-67
2022/01/26 10:31:40;;;;;;;110.90;29.47;;;;;3.80;102568.00;;;;5054263;28;20239;-72
2022/01/26 10:34:28;;;;;;;106.13;29.23;;;;;3.80;102566.00;;;;5047925;28;20727;-72
2022/01/26 10:37:14;;;;;;;112.37;28.87;;;;;3.90;102576.00;;;;5045332;28;20371;-70
2022/01/26 10:40:13;;;;;;;107.73;28.40;;;;;3.70;102571.00;;;;5039774;28;20224;-72
2022/01/26 10:43:04;;;;;;;111.17;29.43;;;;;3.80;102582.00;;;;5051579;28;20715;-72
2022/01/26 10:45:57;;;;;;;118.37;30.13;;;;;3.70;102576.00;;;;5043702;28;20355;-72
2022/01/26 10:49:05;;;;;;;102.10;28.23;;;;;3.90;102564.00;;;;5040811;28;20395;-74
2022/01/26 10:52:00;;;;;;;115.27;30.83;;;;;4.00;102580.00;;;;5050532;28;20229;-71
2022/01/26 10:54:47;;;;;;;107.37;29.57;;;;;4.00;102589.00;;;;5036122;28;20704;-71
2022/01/26 10:57:35;;;;;;;119.80;29.57;;;;;4.10;102586.00;;;;5042715;28;20302;-70
2022/01/26 11:00:22;;;;;;;116.50;28.60;;;;;4.10;102584.00;;;;5033382;28;20288;-70
2022/01/26 11:03:11;;;;;;;109.80;29.53;;;;;3.90;102606.00;;;;5045430;28;20236;-72
2022/01/26 11:05:59;;;;;;;103.47;26.97;;;;;3.90;102588.00;;;;5041851;28;20248;-70
2022/01/26 11:08:46;;;;;;;111.77;29.87;;;;;3.70;102580.00;;;;5051593;28;20745;-70
2022/01/26 11:11:32;;;;;;;125.23;30.00;;;;;3.80;102576.00;;;;5048937;28;20351;-67
2022/01/26 11:14:22;;;;;;;110.97;30.07;;;;;3.70;102574.00;;;;5053772;28;20381;-70
2022/01/26 11:17:13;;;;;;;117.90;28.90;;;;;3.90;102583.00;;;;5052865;28;20362;-70
2022/01/26 11:20:01;;;;;;;121.70;29.80;;;;;4.10;102548.00;;;;5049398;28;20354;-71
2022/01/26 11:22:52;;;;;;;108.10;29.00;;;;;3.90;102544.00;;;;5051464;28;20239;-70
2022/01/26 11:25:42;;;;;;;122.97;30.20;;;;;4.00;102561.00;;;;5037268;28;20236;-70
2022/01/26 11:28:29;;;;;;;108.90;30.70;;;;;3.90;102577.00;;;;5039104;28;20241;-68
2022/01/26 11:31:16;;;;;;;120.07;30.27;;;;;4.00;102570.00;;;;5053115;28;20230;-67
2022/01/26 11:34:19;;;;;;;111.97;29.77;;;;;4.20;102550.00;;;;5060808;28;20608;-69
2022/01/26 11:37:08;;;;;;;114.07;28.97;;;;;4.10;102567.00;;;;5049193;28;20239;-70
2022/01/26 11:46:16;;;;;;;110.97;28.53;;;;;4.20;102548.00;;;;5046545;28;20240;-72
2022/01/26 11:49:06;;;;;;;118.37;30.03;;;;;4.00;102559.00;;;;5047377;28;20252;-71
2022/01/26 11:51:56;;;;;;;116.20;30.63;;;;;4.20;102557.00;;;;5053845;28;20232;-71
2022/01/26 11:54:51;;;;;;;109.97;28.90;;;;;4.10;102549.00;;;;5046182;28;20228;-70
2022/01/26 11:57:43;;;;;;;125.37;30.27;;;;;4.00;102549.00;;;;5048088;28;21151;-70
2022/01/26 12:00:39;;;;;;;115.53;29.57;;;;;4.30;102536.00;;;;5050790;28;20601;-68
2022/01/26 12:03:29;;;;;;;120.40;30.47;;;;;4.20;102536.00;;;;5046998;28;20307;-70
2022/01/26 12:06:26;;;;;;;115.67;30.90;;;;;4.10;102533.00;;;;5038244;28;20317;-70
2022/01/26 12:09:13;;;;;;;117.70;29.27;;;;;4.30;102533.00;;;;5036418;28;20303;-69
2022/01/26 12:11:59;;;;;;;106.30;28.00;;;;;4.30;102522.00;;;;5045593;28;20229;-68
2022/01/26 12:15:00;;;;;;;105.23;28.73;;;;;4.10;102514.00;;;;5046586;28;20377;-70
2022/01/26 12:17:58;;;;;;;110.43;29.30;;;;;4.10;102506.00;;;;5044569;28;20242;-74
2022/01/26 12:33:56;;;;;;;102.50;26.40;;;;;4.20;102523.00;;;;5035423;28;20879;-72
2022/01/26 12:36:56;;;;;;;101.90;28.47;;;;;4.30;102514.00;;;;5042641;28;20250;-70
2022/01/26 12:43:03;;;;;;;110.90;26.13;;;;;4.30;102521.00;;;;5051160;28;20279;-71
2022/01/26 12:46:13;;;;;;;97.33;26.17;;;;;4.30;102515.00;;;;5042707;28;20720;-71
2022/01/26 12:49:01;;;;;;;109.23;28.97;;;;;4.20;102510.00;;;;5051425;28;20696;-68
2022/01/26 12:51:50;;;;;;;94.93;27.30;;;;;4.20;102511.00;;;;5047852;28;20224;-72
2022/01/26 12:54:45;;;;;;;105.03;27.13;;;;;4.30;102512.00;;;;5048246;28;20236;-72
2022/01/26 12:57:31;;;;;;;100.50;26.80;;;;;4.30;102498.00;;;;5050688;28;20381;-72
2022/01/26 13:00:18;;;;;;;91.47;26.37;;;;;4.20;102497.00;;;;5047699;28;20748;-74
2022/01/26 13:03:12;;;;;;;105.17;27.93;;;;;4.30;102487.00;;;;5054809;28;20232;-72
2022/01/26 13:06:06;;;;;;;95.73;25.50;;;;;4.20;102477.00;;;;5040961;28;20232;-71
2022/01/26 13:08:53;;;;;;;117.17;27.13;;;;;4.30;102472.00;;;;5054008;28;20231;-69
2022/01/26 13:11:40;;;;;;;99.20;26.43;;;;;4.30;102467.00;;;;5047621;28;20607;-70
2022/01/26 13:14:29;;;;;;;93.17;25.80;;;;;4.50;102465.00;;;;5050024;28;20236;-69
2022/01/26 13:17:30;;;;;;;90.57;25.43;;;;;4.50;102454.00;;;;5051564;28;20318;-69
2022/01/26 13:20:38;;;;;;;87.40;25.70;;;;;4.50;102467.00;;;;5048349;28;20235;-68
2022/01/26 13:23:34;;;;;;;90.27;24.13;;;;;4.40;102443.00;;;;5046696;28;20247;-73
2022/01/26 13:26:30;;;;;;;83.93;23.73;;;;;4.30;102466.00;;;;5056723;28;20720;-66
2022/01/26 13:29:28;;;;;;;92.73;25.37;;;;;4.30;102451.00;;;;5047171;28;20322;-69
2022/01/26 13:35:48;;;;;;;94.27;25.43;;;;;4.40;102463.00;;;;5049436;28;20244;-71
2022/01/26 13:38:48;;;;;;;80.33;24.23;;;;;4.40;102457.00;;;;5054491;28;20240;-71
2022/01/26 13:41:43;;;;;;;93.33;24.70;;;;;4.40;102471.00;;;;5038385;28;20483;-71
2022/01/26 13:44:54;;;;;;;77.37;23.20;;;;;4.50;102465.00;;;;5048725;28;20639;-69
2022/01/26 13:48:19;;;;;;;81.00;22.43;;;;;4.40;102460.00;;;;5050718;28;20601;-70
2022/01/26 13:51:14;;;;;;;87.80;23.20;;;;;4.50;102458.00;;;;5041268;28;20712;-70
2022/01/26 13:54:25;;;;;;;80.27;24.00;;;;;4.40;102454.00;;;;5033201;28;20761;-70
2022/01/26 13:57:25;;;;;;;81.60;23.10;;;;;4.50;102436.00;;;;5052599;28;20239;-70
2022/01/26 14:00:14;;;;;;;76.87;22.07;;;;;4.50;102457.00;;;;5042156;28;20235;-71
2022/01/26 14:03:04;;;;;;;76.47;23.20;;;;;4.40;102453.00;;;;5047753;28;20223;-70
2022/01/26 14:05:50;;;;;;;74.83;21.80;;;;;4.50;102452.00;;;;5045861;28;20302;-68
2022/01/26 14:08:38;;;;;;;87.63;22.80;;;;;4.30;102447.00;;;;5044062;28;20227;-67
2022/01/26 14:11:28;;;;;;;74.37;21.77;;;;;4.40;102449.00;;;;5043185;28;20412;-69
2022/01/26 14:14:22;;;;;;;79.00;23.17;;;;;4.50;102447.00;;;;5041554;28;20368;-72
2022/01/26 14:17:14;;;;;;;78.03;22.43;;;;;4.50;102447.00;;;;5040813;28;20716;-72
2022/01/26 14:20:13;;;;;;;78.83;22.73;;;;;4.30;102443.00;;;;5039128;28;20242;-70
2022/01/26 14:23:16;;;;;;;81.53;22.73;;;;;4.50;102447.00;;;;5032946;28;20284;-71
2022/01/26 14:26:06;;;;;;;74.63;21.63;;;;;4.30;102442.00;;;;5040756;28;20775;-70
2022/01/26 14:28:52;;;;;;;79.17;22.23;;;;;4.50;102448.00;;;;5046678;28;20738;-72
2022/01/26 14:31:57;;;;;;;78.60;21.90;;;;;4.50;102437.00;;;;5046326;28;20232;-71
2022/01/26 14:50:55;;;;;;;71.30;22.23;;;;;4.50;102426.00;;;;5039459;28;20374;-72
2022/01/26 15:09:32;;;;;;;70.13;21.07;;;;;4.30;102411.00;;;;5022940;28;20308;-70
2022/01/26 15:31:52;;;;;;;71.73;20.80;;;;;4.40;102429.00;;;;5042946;28;20236;-70
2022/01/26 15:40:57;;;;;;;75.07;21.57;;;;;4.30;102432.00;;;;5051305;28;20739;-71
2022/01/26 15:44:02;;;;;;;69.13;22.47;;;;;4.30;102437.00;;;;5043069;28;20635;-70
2022/01/26 15:50:06;;;;;;;80.70;22.47;;;;;4.30;102441.00;;;;5050883;28;20240;-70
2022/01/26 15:53:03;;;;;;;68.00;22.77;;;;;4.40;102434.00;;;;5039918;28;20243;-70
2022/01/26 15:59:06;;;;;;;65.37;20.73;;;;;4.30;102427.00;;;;5058772;28;20359;-67
2022/01/26 16:05:20;;;;;;;74.17;21.60;;;;;4.40;102405.00;;;;5045398;28;20304;-69
2022/01/26 16:08:24;;;;;;;72.43;22.50;;;;;4.40;102410.00;;;;5041580;28;20367;-71
2022/01/26 16:36:13;;;;;;;64.60;20.40;;;;;4.40;102402.00;;;;5055412;28;20226;-72
2022/01/26 16:39:06;;;;;;;72.73;21.77;;;;;4.30;102399.00;;;;5038782;28;20368;-72
2022/01/26 17:25:57;;;;;;;79.67;23.03;;;;;4.20;102384.00;;;;5055243;28;20303;-70
2022/01/26 18:22:20;;;;;;;68.33;22.10;;;;;4.30;102339.00;;;;4934364;28;20355;-71
2022/01/26 18:38:44;;;;;;;85.40;23.60;;;;;4.40;102328.00;;;;5049007;28;20238;-70
2022/01/26 18:46:43;;;;;;;80.23;24.03;;;;;4.30;102333.00;;;;5038701;28;20223;-69
2022/01/26 18:49:30;;;;;;;70.10;23.27;;;;;4.40;102334.00;;;;5045981;28;20855;-72
2022/01/26 18:52:18;;;;;;;71.70;23.03;;;;;4.30;102341.00;;;;5045937;28;20220;-70